Tuesday, January 22, 2019, 4:31 PM EST
Back to Local

KMSS, Massena International -richards Fld

Location: Massena, NY, United States Lat: 44.933
Local Time: 4:31 PM EST (21:31 GMT) Lon: -74.85
Time Zone: US/Eastern Elev: 213 ft

Show me the last for .
Show Decoded

2019-01-22 15:53 METAR KMSS 222053Z AUTO 00000KT 10SM SCT120 M13/M19 A3060 RMK AO2 SLP373
                 T11281194 56017 =
2019-01-22 14:53 METAR KMSS 221953Z AUTO 20005KT 10SM CLR M14/M21 A3061 RMK AO2 SLP378 T11441206
                 =
2019-01-22 13:53 METAR KMSS 221853Z AUTO 27005KT 10SM CLR M14/M21 A3063 RMK AO2 SLP384 T11441211
                 =
2019-01-22 12:53 METAR KMSS 221753Z AUTO 26006KT 10SM CLR M15/M22 A3065 RMK AO2 SLP390 T11501222
                 11150 21272 58012 =
2019-01-22 11:53 METAR KMSS 221653Z AUTO 25005KT 10SM CLR M17/M23 A3066 RMK AO2 SLP396 T11671228
                 =
2019-01-22 10:53 METAR KMSS 221553Z AUTO 25009KT 10SM CLR M18/M24 A3068 RMK AO2 SLP402 T11781239
                 =
2019-01-22 09:53 METAR KMSS 221453Z AUTO 22008KT 10SM CLR M21/M25 A3068 RMK AO2 SLP403 T12061250
                 53001 =
2019-01-22 08:53 METAR KMSS 221353Z AUTO 22005KT 10SM CLR M24/M27 A3068 RMK AO2 SLP405 T12391267
                 =
2019-01-22 07:53 METAR KMSS 221253Z AUTO 20003KT 10SM CLR M26/M28 A3067 RMK AO2 SLP400 T12611278
                 =
2019-01-22 06:53 METAR KMSS 221153Z AUTO 22007KT 10SM CLR M26/M27 A3068 RMK AO2 SLP403 T12561272
                 11206 21256 53026 =
2019-01-22 05:53 METAR KMSS 221053Z AUTO 22007KT 10SM CLR M25/M28 A3065 RMK AO2 SLP392 T12501278
                 =
2019-01-22 04:53 METAR KMSS 220953Z AUTO 23006KT 10SM CLR M24/M27 A3061 RMK AO2 SLP380 T12391267
                 =
2019-01-22 03:53 METAR KMSS 220853Z AUTO 23006KT 10SM CLR M23/M26 A3060 RMK AO2 SLP377 T12281261
                 53022 =
2019-01-22 02:53 METAR KMSS 220753Z AUTO 21006KT 10SM CLR M24/M27 A3057 RMK AO2 SLP367 T12441272
                 =
2019-01-22 01:53 METAR KMSS 220653Z AUTO 24006KT 10SM CLR M22/M26 A3056 RMK AO2 SLP362 T12171261
                 =
2019-01-22 00:53 METAR KMSS 220553Z AUTO 25006KT 10SM CLR M21/M26 A3054 RMK AO2 SLP354 T12061256
                 11183 21206 51032 =
2019-01-21 23:53 METAR KMSS 220453Z AUTO 24006KT 10SM CLR M20/M26 A3051 RMK AO2 SLP345 T12001256
                 411831228 =
2019-01-21 22:53 METAR KMSS 220353Z AUTO 26008KT 10SM CLR M20/M25 A3048 RMK AO2 SLP336 T12001250
                 =
2019-01-21 21:53 METAR KMSS 220253Z AUTO 26011KT 10SM CLR M19/M24 A3044 RMK AO2 SLP322 T11891244
                 51035 =
2019-01-21 20:53 METAR KMSS 220153Z AUTO 27010KT 10SM CLR M19/M24 A3041 RMK AO2 SLP310 T11891244
                 =
2019-01-21 19:53 METAR KMSS 220053Z AUTO 27012KT 10SM CLR M18/M25 A3037 RMK AO2 SLP299 T11831250
                 =
2019-01-21 18:53 METAR KMSS 212353Z AUTO 26012KT 10SM CLR M18/M26 A3034 RMK AO2 SLP285 T11831256
                 11183 21217 53029 =
2019-01-21 17:53 METAR KMSS 212253Z AUTO 25010G17KT 10SM CLR M19/M26 A3031 RMK AO2 SLP277
                 T11891256 =
2019-01-21 16:53 METAR KMSS 212153Z AUTO 26013G20KT 10SM CLR M19/M26 A3028 RMK AO2 SLP266
                 T11891256 =

Support USWX by starting your Amazon purchase here.